sensor_id;sensor_type;location;lat;lon;timestamp;pressure;altitude;pressure_sealevel;temperature;humidity
9899;BME280;4988;49.238;6.698;2024-03-22T00:00:07;99883.94;;;11.12;99.91
9899;BME280;4988;49.238;6.698;2024-03-22T00:02:36;99880.41;;;11.12;100.00
9899;BME280;4988;49.238;6.698;2024-03-22T00:05:02;99878.59;;;11.12;100.00
9899;BME280;4988;49.238;6.698;2024-03-22T00:07:27;99872.25;;;11.16;99.75
9899;BME280;4988;49.238;6.698;2024-03-22T00:09:53;99870.50;;;11.15;98.92
9899;BME280;4988;49.238;6.698;2024-03-22T00:12:18;99875.84;;;11.15;99.52
9899;BME280;4988;49.238;6.698;2024-03-22T00:14:43;99868.59;;;11.19;98.59
9899;BME280;4988;49.238;6.698;2024-03-22T00:17:08;99862.44;;;11.17;98.68
9899;BME280;4988;49.238;6.698;2024-03-22T00:19:34;99858.88;;;11.18;99.45
9899;BME280;4988;49.238;6.698;2024-03-22T00:22:00;99853.53;;;11.18;99.16
9899;BME280;4988;49.238;6.698;2024-03-22T00:24:25;99857.94;;;11.19;98.40
9899;BME280;4988;49.238;6.698;2024-03-22T00:26:50;99862.38;;;11.18;96.43
9899;BME280;4988;49.238;6.698;2024-03-22T00:29:16;99861.81;;;11.10;97.63
9899;BME280;4988;49.238;6.698;2024-03-22T00:31:41;99850.50;;;11.03;98.08
9899;BME280;4988;49.238;6.698;2024-03-22T00:34:06;99852.84;;;10.87;99.73
9899;BME280;4988;49.238;6.698;2024-03-22T00:36:32;99845.31;;;10.75;99.88
9899;BME280;4988;49.238;6.698;2024-03-22T00:38:57;99837.75;;;10.62;100.00
9899;BME280;4988;49.238;6.698;2024-03-22T00:41:22;99848.59;;;10.56;100.00
9899;BME280;4988;49.238;6.698;2024-03-22T00:43:48;99841.66;;;10.52;100.00
9899;BME280;4988;49.238;6.698;2024-03-22T00:46:13;99851.44;;;10.52;100.00
9899;BME280;4988;49.238;6.698;2024-03-22T00:48:38;99852.53;;;10.46;100.00
9899;BME280;4988;49.238;6.698;2024-03-22T00:51:04;99841.25;;;10.38;100.00
9899;BME280;4988;49.238;6.698;2024-03-22T00:53:29;99839.81;;;10.27;100.00
9899;BME280;4988;49.238;6.698;2024-03-22T00:55:55;99841.03;;;10.17;100.00
9899;BME280;4988;49.238;6.698;2024-03-22T00:58:21;99840.66;;;10.01;100.00
9899;BME280;4988;49.238;6.698;2024-03-22T01:00:47;99839.09;;;9.94;100.00
9899;BME280;4988;49.238;6.698;2024-03-22T01:03:12;99841.03;;;9.89;100.00
9899;BME280;4988;49.238;6.698;2024-03-22T01:05:37;99833.97;;;9.88;100.00
9899;BME280;4988;49.238;6.698;2024-03-22T01:08:03;99829.63;;;9.87;100.00
9899;BME280;4988;49.238;6.698;2024-03-22T01:10:30;99831.50;;;9.83;100.00
9899;BME280;4988;49.238;6.698;2024-03-22T01:12:55;99823.47;;;9.85;100.00
9899;BME280;4988;49.238;6.698;2024-03-22T01:15:20;99825.94;;;9.91;100.00
9899;BME280;4988;49.238;6.698;2024-03-22T01:17:46;99820.41;;;9.97;100.00
9899;BME280;4988;49.238;6.698;2024-03-22T01:20:11;99815.16;;;9.95;100.00
9899;BME280;4988;49.238;6.698;2024-03-22T01:22:36;99811.50;;;9.98;100.00
9899;BME280;4988;49.238;6.698;2024-03-22T01:25:02;99808.78;;;10.00;100.00
9899;BME280;4988;49.238;6.698;2024-03-22T01:27:28;99803.38;;;10.03;100.00
9899;BME280;4988;49.238;6.698;2024-03-22T01:29:53;99806.13;;;10.00;100.00
9899;BME280;4988;49.238;6.698;2024-03-22T01:32:18;99800.72;;;10.03;100.00
9899;BME280;4988;49.238;6.698;2024-03-22T01:34:43;99804.94;;;10.08;100.00
9899;BME280;4988;49.238;6.698;2024-03-22T01:37:09;99801.22;;;10.14;100.00
9899;BME280;4988;49.238;6.698;2024-03-22T01:39:34;99805.72;;;10.12;100.00
9899;BME280;4988;49.238;6.698;2024-03-22T01:41:59;99800.59;;;10.06;100.00
9899;BME280;4988;49.238;6.698;2024-03-22T01:44:28;99804.31;;;10.02;100.00
9899;BME280;4988;49.238;6.698;2024-03-22T01:46:54;99797.19;;;10.02;100.00
9899;BME280;4988;49.238;6.698;2024-03-22T01:49:20;99802.16;;;10.13;100.00
9899;BME280;4988;49.238;6.698;2024-03-22T01:51:46;99805.63;;;10.15;100.00
9899;BME280;4988;49.238;6.698;2024-03-22T01:54:11;99800.19;;;10.18;100.00
9899;BME280;4988;49.238;6.698;2024-03-22T01:56:37;99799.28;;;10.19;100.00
9899;BME280;4988;49.238;6.698;2024-03-22T01:59:04;99792.16;;;10.20;100.00
9899;BME280;4988;49.238;6.698;2024-03-22T02:01:29;99790.31;;;10.22;100.00
9899;BME280;4988;49.238;6.698;2024-03-22T02:03:55;99786.75;;;10.23;100.00
9899;BME280;4988;49.238;6.698;2024-03-22T02:06:20;99779.75;;;10.20;100.00
9899;BME280;4988;49.238;6.698;2024-03-22T02:08:45;99779.75;;;10.20;100.00
9899;BME280;4988;49.238;6.698;2024-03-22T02:11:11;99773.50;;;10.21;100.00
9899;BME280;4988;49.238;6.698;2024-03-22T02:13:36;99777.94;;;10.21;100.00
9899;BME280;4988;49.238;6.698;2024-03-22T02:16:05;99779.69;;;10.22;100.00
9899;BME280;4988;49.238;6.698;2024-03-22T02:18:30;99782.44;;;10.19;100.00
9899;BME280;4988;49.238;6.698;2024-03-22T02:20:59;99768.47;;;10.12;100.00
9899;BME280;4988;49.238;6.698;2024-03-22T02:23:35;99773.31;;;10.01;100.00
9899;BME280;4988;49.238;6.698;2024-03-22T02:26:01;99764.81;;;9.89;100.00
9899;BME280;4988;49.238;6.698;2024-03-22T02:28:26;99765.03;;;9.81;100.00
9899;BME280;4988;49.238;6.698;2024-03-22T02:30:52;99763.50;;;9.74;100.00
9899;BME280;4988;49.238;6.698;2024-03-22T02:33:17;99752.00;;;9.74;100.00
9899;BME280;4988;49.238;6.698;2024-03-22T02:35:43;99753.63;;;9.78;100.00
9899;BME280;4988;49.238;6.698;2024-03-22T02:38:11;99748.88;;;9.88;100.00
9899;BME280;4988;49.238;6.698;2024-03-22T02:40:36;99743.38;;;9.94;100.00
9899;BME280;4988;49.238;6.698;2024-03-22T02:43:01;99741.47;;;9.97;100.00
9899;BME280;4988;49.238;6.698;2024-03-22T02:45:26;99739.69;;;9.98;100.00
9899;BME280;4988;49.238;6.698;2024-03-22T02:47:52;99736.97;;;10.00;100.00
9899;BME280;4988;49.238;6.698;2024-03-22T02:50:17;99740.50;;;10.00;100.00
9899;BME280;4988;49.238;6.698;2024-03-22T02:52:42;99742.59;;;9.90;100.00
9899;BME280;4988;49.238;6.698;2024-03-22T02:55:08;99740.31;;;9.79;100.00
9899;BME280;4988;49.238;6.698;2024-03-22T02:57:33;99739.78;;;9.68;100.00
9899;BME280;4988;49.238;6.698;2024-03-22T03:00:00;99736.56;;;9.58;100.00
9899;BME280;4988;49.238;6.698;2024-03-22T03:02:25;99730.84;;;9.42;100.00
9899;BME280;4988;49.238;6.698;2024-03-22T03:04:50;99731.16;;;9.33;100.00
9899;BME280;4988;49.238;6.698;2024-03-22T03:07:16;99728.44;;;9.34;100.00
9899;BME280;4988;49.238;6.698;2024-03-22T03:09:41;99728.19;;;9.44;100.00
9899;BME280;4988;49.238;6.698;2024-03-22T03:12:06;99725.25;;;9.52;100.00
9899;BME280;4988;49.238;6.698;2024-03-22T03:14:32;99725.19;;;9.53;100.00
9899;BME280;4988;49.238;6.698;2024-03-22T03:16:57;99727.00;;;9.53;100.00
9899;BME280;4988;49.238;6.698;2024-03-22T03:19:22;99720.81;;;9.52;100.00
9899;BME280;4988;49.238;6.698;2024-03-22T03:21:48;99724.22;;;9.56;100.00
9899;BME280;4988;49.238;6.698;2024-03-22T03:24:13;99712.84;;;9.52;100.00
9899;BME280;4988;49.238;6.698;2024-03-22T03:26:38;99707.63;;;9.49;100.00
9899;BME280;4988;49.238;6.698;2024-03-22T03:29:04;99708.53;;;9.48;100.00
9899;BME280;4988;49.238;6.698;2024-03-22T03:31:29;99712.50;;;9.34;100.00
9899;BME280;4988;49.238;6.698;2024-03-22T03:33:54;99707.50;;;9.25;100.00
9899;BME280;4988;49.238;6.698;2024-03-22T03:36:19;99711.34;;;9.15;100.00
9899;BME280;4988;49.238;6.698;2024-03-22T03:38:45;99699.16;;;9.08;100.00
9899;BME280;4988;49.238;6.698;2024-03-22T03:41:10;99711.66;;;9.06;100.00
9899;BME280;4988;49.238;6.698;2024-03-22T03:43:35;99702.91;;;9.02;100.00
9899;BME280;4988;49.238;6.698;2024-03-22T03:46:01;99697.34;;;9.10;100.00
9899;BME280;4988;49.238;6.698;2024-03-22T03:48:26;99700.72;;;9.15;100.00
9899;BME280;4988;49.238;6.698;2024-03-22T03:50:55;99692.72;;;9.16;100.00
9899;BME280;4988;49.238;6.698;2024-03-22T03:53:24;99688.34;;;9.15;100.00
9899;BME280;4988;49.238;6.698;2024-03-22T03:55:49;99684.00;;;9.13;100.00
9899;BME280;4988;49.238;6.698;2024-03-22T03:58:14;99687.63;;;9.09;100.00
9899;BME280;4988;49.238;6.698;2024-03-22T04:00:41;99676.03;;;9.11;100.00
9899;BME280;4988;49.238;6.698;2024-03-22T04:03:06;99677.84;;;9.11;100.00
9899;BME280;4988;49.238;6.698;2024-03-22T04:05:31;99671.56;;;9.13;100.00
9899;BME280;4988;49.238;6.698;2024-03-22T04:07:57;99674.34;;;9.09;100.00
9899;BME280;4988;49.238;6.698;2024-03-22T04:10:22;99665.59;;;9.07;100.00
9899;BME280;4988;49.238;6.698;2024-03-22T04:12:47;99664.75;;;9.05;100.00
9899;BME280;4988;49.238;6.698;2024-03-22T04:15:12;99677.25;;;9.01;100.00
9899;BME280;4988;49.238;6.698;2024-03-22T04:17:38;99675.66;;;8.95;100.00
9899;BME280;4988;49.238;6.698;2024-03-22T04:20:03;99678.31;;;8.95;100.00
9899;BME280;4988;49.238;6.698;2024-03-22T04:22:29;99669.53;;;8.93;100.00
9899;BME280;4988;49.238;6.698;2024-03-22T04:24:54;99672.22;;;8.92;100.00
9899;BME280;4988;49.238;6.698;2024-03-22T04:27:20;99676.81;;;8.87;100.00
9899;BME280;4988;49.238;6.698;2024-03-22T04:29:49;99670.66;;;8.86;100.00
9899;BME280;4988;49.238;6.698;2024-03-22T04:32:15;99670.47;;;8.92;100.00
9899;BME280;4988;49.238;6.698;2024-03-22T04:34:43;99662.69;;;8.86;100.00
9899;BME280;4988;49.238;6.698;2024-03-22T04:37:08;99669.72;;;8.87;100.00
9899;BME280;4988;49.238;6.698;2024-03-22T04:39:35;99675.81;;;8.91;100.00
9899;BME280;4988;49.238;6.698;2024-03-22T04:42:01;99676.78;;;8.88;100.00
9899;BME280;4988;49.238;6.698;2024-03-22T04:44:27;99673.38;;;8.83;100.00
9899;BME280;4988;49.238;6.698;2024-03-22T04:46:52;99671.63;;;8.82;100.00
9899;BME280;4988;49.238;6.698;2024-03-22T04:49:17;99673.28;;;8.86;100.00
9899;BME280;4988;49.238;6.698;2024-03-22T04:51:43;99670.72;;;8.83;100.00
9899;BME280;4988;49.238;6.698;2024-03-22T04:54:08;99674.16;;;8.87;100.00
9899;BME280;4988;49.238;6.698;2024-03-22T04:56:33;99674.94;;;8.90;100.00
9899;BME280;4988;49.238;6.698;2024-03-22T04:58:58;99673.19;;;8.89;100.00
9899;BME280;4988;49.238;6.698;2024-03-22T05:01:24;99675.03;;;8.87;100.00
9899;BME280;4988;49.238;6.698;2024-03-22T05:03:49;99681.16;;;8.89;100.00
9899;BME280;4988;49.238;6.698;2024-03-22T05:06:15;99675.06;;;8.85;100.00
9899;BME280;4988;49.238;6.698;2024-03-22T05:08:40;99679.59;;;8.82;100.00
9899;BME280;4988;49.238;6.698;2024-03-22T05:11:07;99680.97;;;8.65;100.00
9899;BME280;4988;49.238;6.698;2024-03-22T05:13:32;99675.78;;;8.62;100.00
9899;BME280;4988;49.238;6.698;2024-03-22T05:15:58;99677.41;;;8.66;100.00
9899;BME280;4988;49.238;6.698;2024-03-22T05:18:23;99678.25;;;8.68;100.00
9899;BME280;4988;49.238;6.698;2024-03-22T05:20:48;99675.59;;;8.68;100.00
9899;BME280;4988;49.238;6.698;2024-03-22T05:23:13;99681.34;;;8.83;100.00
9899;BME280;4988;49.238;6.698;2024-03-22T05:25:41;99681.41;;;8.81;100.00
9899;BME280;4988;49.238;6.698;2024-03-22T05:28:06;99670.59;;;8.88;100.00
9899;BME280;4988;49.238;6.698;2024-03-22T05:30:32;99670.41;;;8.94;100.00
9899;BME280;4988;49.238;6.698;2024-03-22T05:32:58;99666.25;;;8.85;100.00
9899;BME280;4988;49.238;6.698;2024-03-22T05:35:23;99660.84;;;8.88;100.00
9899;BME280;4988;49.238;6.698;2024-03-22T05:37:48;99656.41;;;8.89;100.00
9899;BME280;4988;49.238;6.698;2024-03-22T05:40:15;99648.56;;;8.84;100.00
9899;BME280;4988;49.238;6.698;2024-03-22T05:42:41;99651.34;;;8.81;100.00
9899;BME280;4988;49.238;6.698;2024-03-22T05:45:07;99647.72;;;8.83;100.00
9899;BME280;4988;49.238;6.698;2024-03-22T05:47:33;99648.50;;;8.87;100.00
9899;BME280;4988;49.238;6.698;2024-03-22T05:49:59;99653.81;;;8.87;100.00
9899;BME280;4988;49.238;6.698;2024-03-22T05:52:25;99657.88;;;8.69;100.00
9899;BME280;4988;49.238;6.698;2024-03-22T05:54:50;99654.81;;;8.53;100.00
9899;BME280;4988;49.238;6.698;2024-03-22T05:57:16;99640.84;;;8.45;100.00
9899;BME280;4988;49.238;6.698;2024-03-22T05:59:41;99635.72;;;8.40;100.00
9899;BME280;4988;49.238;6.698;2024-03-22T06:02:07;99640.25;;;8.35;100.00
9899;BME280;4988;49.238;6.698;2024-03-22T06:04:32;99637.59;;;8.35;100.00
9899;BME280;4988;49.238;6.698;2024-03-22T06:06:57;99640.66;;;8.21;100.00
9899;BME280;4988;49.238;6.698;2024-03-22T06:09:28;99641.56;;;8.20;100.00
9899;BME280;4988;49.238;6.698;2024-03-22T06:12:05;99645.34;;;8.11;100.00
9899;BME280;4988;49.238;6.698;2024-03-22T06:14:30;99638.22;;;8.13;100.00
9899;BME280;4988;49.238;6.698;2024-03-22T06:16:55;99638.19;;;8.15;100.00
9899;BME280;4988;49.238;6.698;2024-03-22T06:19:21;99637.94;;;8.24;100.00
9899;BME280;4988;49.238;6.698;2024-03-22T06:21:46;99631.44;;;8.34;100.00
9899;BME280;4988;49.238;6.698;2024-03-22T06:24:11;99630.03;;;8.54;100.00
9899;BME280;4988;49.238;6.698;2024-03-22T06:26:37;99623.44;;;8.67;100.00
9899;BME280;4988;49.238;6.698;2024-03-22T06:29:02;99619.44;;;8.82;100.00
9899;BME280;4988;49.238;6.698;2024-03-22T06:31:28;99614.59;;;8.95;100.00
9899;BME280;4988;49.238;6.698;2024-03-22T06:33:54;99613.53;;;9.01;100.00
9899;BME280;4988;49.238;6.698;2024-03-22T06:36:19;99612.38;;;9.10;100.00
9899;BME280;4988;49.238;6.698;2024-03-22T06:38:44;99617.53;;;9.14;100.00
9899;BME280;4988;49.238;6.698;2024-03-22T06:41:10;99626.16;;;9.21;100.00
9899;BME280;4988;49.238;6.698;2024-03-22T06:43:35;99624.94;;;9.31;100.00
9899;BME280;4988;49.238;6.698;2024-03-22T06:46:00;99616.00;;;9.34;100.00
9899;BME280;4988;49.238;6.698;2024-03-22T06:48:26;99616.56;;;9.44;100.00
9899;BME280;4988;49.238;6.698;2024-03-22T06:50:51;99609.38;;;9.47;100.00
9899;BME280;4988;49.238;6.698;2024-03-22T06:53:16;99607.28;;;9.56;100.00
9899;BME280;4988;49.238;6.698;2024-03-22T06:55:41;99613.22;;;9.64;100.00
9899;BME280;4988;49.238;6.698;2024-03-22T06:58:07;99601.59;;;9.66;100.00
9899;BME280;4988;49.238;6.698;2024-03-22T07:00:32;99608.66;;;9.68;100.00
9899;BME280;4988;49.238;6.698;2024-03-22T07:03:01;99605.09;;;9.69;100.00
9899;BME280;4988;49.238;6.698;2024-03-22T07:05:28;99606.72;;;9.73;100.00
9899;BME280;4988;49.238;6.698;2024-03-22T07:07:53;99604.75;;;9.78;100.00
9899;BME280;4988;49.238;6.698;2024-03-22T07:10:21;99609.06;;;9.82;100.00
9899;BME280;4988;49.238;6.698;2024-03-22T07:12:47;99609.75;;;9.87;100.00
9899;BME280;4988;49.238;6.698;2024-03-22T07:15:13;99606.06;;;9.91;100.00
9899;BME280;4988;49.238;6.698;2024-03-22T07:17:38;99594.34;;;9.97;100.00
9899;BME280;4988;49.238;6.698;2024-03-22T07:20:04;99591.53;;;10.02;100.00
9899;BME280;4988;49.238;6.698;2024-03-22T07:22:29;99588.50;;;10.11;100.00
9899;BME280;4988;49.238;6.698;2024-03-22T07:24:54;99588.34;;;10.16;100.00
9899;BME280;4988;49.238;6.698;2024-03-22T07:27:20;99587.28;;;10.20;100.00
9899;BME280;4988;49.238;6.698;2024-03-22T07:29:46;99586.13;;;10.27;100.00
9899;BME280;4988;49.238;6.698;2024-03-22T07:32:11;99583.66;;;10.22;100.00
9899;BME280;4988;49.238;6.698;2024-03-22T07:34:36;99581.56;;;10.30;100.00
9899;BME280;4988;49.238;6.698;2024-03-22T07:37:01;99579.72;;;10.33;100.00
9899;BME280;4988;49.238;6.698;2024-03-22T07:39:27;99579.53;;;10.39;100.00
9899;BME280;4988;49.238;6.698;2024-03-22T07:41:52;99577.72;;;10.39;100.00
9899;BME280;4988;49.238;6.698;2024-03-22T07:44:18;99577.69;;;10.41;100.00
9899;BME280;4988;49.238;6.698;2024-03-22T07:46:45;99581.06;;;10.44;100.00
9899;BME280;4988;49.238;6.698;2024-03-22T07:49:11;99584.63;;;10.45;100.00
9899;BME280;4988;49.238;6.698;2024-03-22T07:51:37;99579.28;;;10.45;100.00
9899;BME280;4988;49.238;6.698;2024-03-22T07:54:02;99579.06;;;10.51;100.00
9899;BME280;4988;49.238;6.698;2024-03-22T07:56:27;99579.66;;;10.58;100.00
9899;BME280;4988;49.238;6.698;2024-03-22T07:58:53;99571.50;;;10.62;100.00
9899;BME280;4988;49.238;6.698;2024-03-22T08:01:18;99570.34;;;10.70;100.00
9899;BME280;4988;49.238;6.698;2024-03-22T08:03:43;99568.34;;;10.75;100.00
9899;BME280;4988;49.238;6.698;2024-03-22T08:06:09;99581.66;;;10.75;100.00
9899;BME280;4988;49.238;6.698;2024-03-22T08:08:34;99570.34;;;10.70;100.00
9899;BME280;4988;49.238;6.698;2024-03-22T08:10:59;99571.16;;;10.72;100.00
9899;BME280;4988;49.238;6.698;2024-03-22T08:13:25;99570.91;;;10.78;100.00
9899;BME280;4988;49.238;6.698;2024-03-22T08:15:50;99573.88;;;10.92;100.00
9899;BME280;4988;49.238;6.698;2024-03-22T08:18:15;99567.66;;;11.14;100.00
9899;BME280;4988;49.238;6.698;2024-03-22T08:20:41;99560.97;;;11.26;100.00
9899;BME280;4988;49.238;6.698;2024-03-22T08:23:07;99569.22;;;11.40;100.00
9899;BME280;4988;49.238;6.698;2024-03-22T08:25:32;99560.78;;;11.51;100.00
9899;BME280;4988;49.238;6.698;2024-03-22T08:27:59;99555.50;;;11.70;100.00
9899;BME280;4988;49.238;6.698;2024-03-22T08:30:25;99555.53;;;11.89;100.00
9899;BME280;4988;49.238;6.698;2024-03-22T08:32:51;99552.44;;;12.00;100.00
9899;BME280;4988;49.238;6.698;2024-03-22T08:35:17;99550.94;;;12.14;100.00
9899;BME280;4988;49.238;6.698;2024-03-22T08:37:42;99544.22;;;12.24;100.00
9899;BME280;4988;49.238;6.698;2024-03-22T08:40:08;99550.66;;;12.39;98.27
9899;BME280;4988;49.238;6.698;2024-03-22T08:42:33;99550.06;;;12.51;98.92
9899;BME280;4988;49.238;6.698;2024-03-22T08:44:58;99546.97;;;12.61;97.64
9899;BME280;4988;49.238;6.698;2024-03-22T08:47:24;99539.09;;;12.77;95.51
9899;BME280;4988;49.238;6.698;2024-03-22T08:49:49;99546.06;;;12.79;94.59
9899;BME280;4988;49.238;6.698;2024-03-22T08:52:15;99539.41;;;12.88;92.73
9899;BME280;4988;49.238;6.698;2024-03-22T08:54:40;99538.66;;;12.86;93.88
9899;BME280;4988;49.238;6.698;2024-03-22T08:57:05;99530.31;;;12.92;93.60
9899;BME280;4988;49.238;6.698;2024-03-22T08:59:31;99521.75;;;13.03;92.79
9899;BME280;4988;49.238;6.698;2024-03-22T09:01:56;99532.72;;;13.16;92.36
9899;BME280;4988;49.238;6.698;2024-03-22T09:04:22;99522.63;;;13.21;91.99
9899;BME280;4988;49.238;6.698;2024-03-22T09:06:47;99523.84;;;13.33;92.62
9899;BME280;4988;49.238;6.698;2024-03-22T09:09:12;99508.41;;;13.56;93.41
9899;BME280;4988;49.238;6.698;2024-03-22T09:11:38;99511.56;;;13.64;90.59
9899;BME280;4988;49.238;6.698;2024-03-22T09:14:03;99501.00;;;13.78;90.63
9899;BME280;4988;49.238;6.698;2024-03-22T09:16:29;99497.09;;;13.84;90.91
9899;BME280;4988;49.238;6.698;2024-03-22T09:18:54;99499.38;;;13.92;89.73
9899;BME280;4988;49.238;6.698;2024-03-22T09:21:19;99493.69;;;13.98;89.00
9899;BME280;4988;49.238;6.698;2024-03-22T09:23:44;99487.03;;;14.05;88.96
9899;BME280;4988;49.238;6.698;2024-03-22T09:26:10;99478.97;;;14.23;89.50
9899;BME280;4988;49.238;6.698;2024-03-22T09:28:35;99477.50;;;14.33;88.56
9899;BME280;4988;49.238;6.698;2024-03-22T09:31:05;99478.88;;;14.40;87.18
9899;BME280;4988;49.238;6.698;2024-03-22T09:33:31;99469.00;;;14.57;88.40
9899;BME280;4988;49.238;6.698;2024-03-22T09:35:56;99465.88;;;14.64;86.39
9899;BME280;4988;49.238;6.698;2024-03-22T09:38:22;99467.97;;;14.75;86.12
9899;BME280;4988;49.238;6.698;2024-03-22T09:40:47;99465.88;;;14.80;85.12
9899;BME280;4988;49.238;6.698;2024-03-22T09:43:15;99457.41;;;14.88;85.65
9899;BME280;4988;49.238;6.698;2024-03-22T09:45:44;99455.13;;;14.96;84.94
9899;BME280;4988;49.238;6.698;2024-03-22T09:48:10;99455.25;;;15.09;83.65
9899;BME280;4988;49.238;6.698;2024-03-22T09:50:35;99447.44;;;15.21;81.59
9899;BME280;4988;49.238;6.698;2024-03-22T09:53:03;99448.03;;;15.40;81.01
9899;BME280;4988;49.238;6.698;2024-03-22T09:55:30;99439.63;;;15.61;78.17
9899;BME280;4988;49.238;6.698;2024-03-22T09:57:56;99430.91;;;15.72;75.56
9899;BME280;4988;49.238;6.698;2024-03-22T10:00:22;99420.94;;;15.88;79.13
9899;BME280;4988;49.238;6.698;2024-03-22T10:02:49;99435.78;;;16.08;78.02
9899;BME280;4988;49.238;6.698;2024-03-22T10:05:15;99427.31;;;16.15;75.28
9899;BME280;4988;49.238;6.698;2024-03-22T10:07:43;99425.22;;;16.20;74.65
9899;BME280;4988;49.238;6.698;2024-03-22T10:10:09;99427.81;;;16.21;74.09
9899;BME280;4988;49.238;6.698;2024-03-22T10:12:35;99421.50;;;16.08;73.12
9899;BME280;4988;49.238;6.698;2024-03-22T10:15:00;99422.94;;;15.99;73.94
9899;BME280;4988;49.238;6.698;2024-03-22T10:17:26;99409.44;;;15.86;74.61
9899;BME280;4988;49.238;6.698;2024-03-22T10:19:52;99416.81;;;15.97;76.33
9899;BME280;4988;49.238;6.698;2024-03-22T10:22:18;99405.28;;;15.95;74.38
9899;BME280;4988;49.238;6.698;2024-03-22T10:24:44;99410.09;;;15.90;74.55
9899;BME280;4988;49.238;6.698;2024-03-22T10:27:09;99407.41;;;16.04;74.39
9899;BME280;4988;49.238;6.698;2024-03-22T10:29:38;99401.25;;;16.02;75.06
9899;BME280;4988;49.238;6.698;2024-03-22T10:32:04;99399.94;;;15.95;74.42
9899;BME280;4988;49.238;6.698;2024-03-22T10:34:30;99397.44;;;16.06;75.89
9899;BME280;4988;49.238;6.698;2024-03-22T10:36:56;99388.28;;;16.23;75.11
9899;BME280;4988;49.238;6.698;2024-03-22T10:39:23;99380.22;;;16.23;73.45
9899;BME280;4988;49.238;6.698;2024-03-22T10:41:49;99377.16;;;16.43;75.26
9899;BME280;4988;49.238;6.698;2024-03-22T10:44:15;99366.78;;;16.51;73.99
9899;BME280;4988;49.238;6.698;2024-03-22T10:46:45;99367.78;;;16.76;73.75
9899;BME280;4988;49.238;6.698;2024-03-22T10:49:17;99371.78;;;16.83;71.64
9899;BME280;4988;49.238;6.698;2024-03-22T10:51:50;99367.44;;;16.67;70.49
9899;BME280;4988;49.238;6.698;2024-03-22T10:54:21;99359.81;;;16.61;71.21
9899;BME280;4988;49.238;6.698;2024-03-22T10:56:49;99369.94;;;16.70;70.12
9899;BME280;4988;49.238;6.698;2024-03-22T10:59:19;99358.53;;;16.67;70.10
9899;BME280;4988;49.238;6.698;2024-03-22T11:01:49;99355.31;;;16.62;69.81
9899;BME280;4988;49.238;6.698;2024-03-22T11:04:19;99351.25;;;16.82;70.35
9899;BME280;4988;49.238;6.698;2024-03-22T11:06:49;99361.53;;;16.62;69.90
9899;BME280;4988;49.238;6.698;2024-03-22T11:09:27;99351.38;;;16.53;69.76
9899;BME280;4988;49.238;6.698;2024-03-22T11:11:53;99347.97;;;16.51;71.01
9899;BME280;4988;49.238;6.698;2024-03-22T11:14:19;99342.03;;;16.46;71.73
9899;BME280;4988;49.238;6.698;2024-03-22T11:16:46;99340.09;;;16.48;71.12
9899;BME280;4988;49.238;6.698;2024-03-22T11:19:11;99346.66;;;16.56;72.26
9899;BME280;4988;49.238;6.698;2024-03-22T11:21:37;99341.09;;;16.60;70.38
9899;BME280;4988;49.238;6.698;2024-03-22T11:24:03;99333.34;;;16.55;70.61
9899;BME280;4988;49.238;6.698;2024-03-22T11:26:28;99327.53;;;16.61;71.55
9899;BME280;4988;49.238;6.698;2024-03-22T11:28:53;99323.47;;;16.68;69.41
9899;BME280;4988;49.238;6.698;2024-03-22T11:31:19;99324.31;;;16.56;69.69
9899;BME280;4988;49.238;6.698;2024-03-22T11:33:51;99310.03;;;16.68;70.83
9899;BME280;4988;49.238;6.698;2024-03-22T11:36:17;99317.69;;;16.75;69.26
9899;BME280;4988;49.238;6.698;2024-03-22T11:38:42;99315.09;;;16.86;70.33
9899;BME280;4988;49.238;6.698;2024-03-22T11:41:08;99307.94;;;16.99;69.86
9899;BME280;4988;49.238;6.698;2024-03-22T11:43:34;99304.50;;;17.10;69.70
9899;BME280;4988;49.238;6.698;2024-03-22T11:46:00;99297.88;;;16.88;69.02
9899;BME280;4988;49.238;6.698;2024-03-22T11:48:26;99301.72;;;16.99;70.48
9899;BME280;4988;49.238;6.698;2024-03-22T11:50:52;99299.34;;;16.94;70.10
9899;BME280;4988;49.238;6.698;2024-03-22T11:53:17;99291.59;;;17.02;70.60
9899;BME280;4988;49.238;6.698;2024-03-22T11:55:43;99292.97;;;17.08;70.08
9899;BME280;4988;49.238;6.698;2024-03-22T11:58:11;99294.50;;;16.99;70.54
9899;BME280;4988;49.238;6.698;2024-03-22T12:00:37;99289.94;;;16.87;68.80
9899;BME280;4988;49.238;6.698;2024-03-22T12:03:06;99279.06;;;16.76;69.44
9899;BME280;4988;49.238;6.698;2024-03-22T12:05:31;99280.59;;;16.67;70.19
9899;BME280;4988;49.238;6.698;2024-03-22T12:07:57;99278.31;;;16.73;71.22
9899;BME280;4988;49.238;6.698;2024-03-22T12:10:22;99275.53;;;16.88;70.29
9899;BME280;4988;49.238;6.698;2024-03-22T12:12:47;99263.50;;;16.94;70.66
9899;BME280;4988;49.238;6.698;2024-03-22T12:15:13;99258.31;;;17.03;70.14
9899;BME280;4988;49.238;6.698;2024-03-22T12:17:38;99257.88;;;17.10;70.59
9899;BME280;4988;49.238;6.698;2024-03-22T12:20:06;99252.72;;;17.19;69.44
9899;BME280;4988;49.238;6.698;2024-03-22T12:22:33;99262.59;;;17.32;69.33
9899;BME280;4988;49.238;6.698;2024-03-22T12:24:59;99251.81;;;17.32;67.79
9899;BME280;4988;49.238;6.698;2024-03-22T12:27:24;99245.28;;;17.23;65.36
9899;BME280;4988;49.238;6.698;2024-03-22T12:29:49;99232.25;;;17.30;65.03
9899;BME280;4988;49.238;6.698;2024-03-22T12:32:15;99228.94;;;17.26;64.69
9899;BME280;4988;49.238;6.698;2024-03-22T12:34:40;99240.25;;;17.18;65.35
9899;BME280;4988;49.238;6.698;2024-03-22T12:37:05;99224.84;;;17.20;65.23
9899;BME280;4988;49.238;6.698;2024-03-22T12:39:31;99223.91;;;17.09;64.50
9899;BME280;4988;49.238;6.698;2024-03-22T12:41:57;99357.09;;;17.14;65.17
9899;BME280;4988;49.238;6.698;2024-03-22T12:44:23;99214.97;;;17.21;65.71
9899;BME280;4988;49.238;6.698;2024-03-22T12:46:48;99217.97;;;17.16;65.63
9899;BME280;4988;49.238;6.698;2024-03-22T12:49:16;99221.31;;;17.07;66.31
9899;BME280;4988;49.238;6.698;2024-03-22T12:51:41;99210.88;;;17.15;66.14
9899;BME280;4988;49.238;6.698;2024-03-22T12:54:07;99211.63;;;17.17;66.60
9899;BME280;4988;49.238;6.698;2024-03-22T12:56:32;99202.91;;;17.14;67.02
9899;BME280;4988;49.238;6.698;2024-03-22T12:58:59;99192.69;;;17.19;66.11
9899;BME280;4988;49.238;6.698;2024-03-22T13:01:24;99191.63;;;17.09;67.79
9899;BME280;4988;49.238;6.698;2024-03-22T13:03:50;99187.31;;;17.19;67.43
9899;BME280;4988;49.238;6.698;2024-03-22T13:06:15;99183.41;;;17.23;67.09
9899;BME280;4988;49.238;6.698;2024-03-22T13:08:40;99181.28;;;17.15;67.20
9899;BME280;4988;49.238;6.698;2024-03-22T13:11:06;99172.88;;;17.20;67.07